Time;durP1;ratioP1;P1;durP2;ratioP2;P2;SDS_P1;SDS_P2;PMS_P1;PMS_P2;Temp;Humidity;BMP_temperature;BMP_pressure;BME280_temperature;BME280_humidity;BME280_pressure;Samples;Min_cycle;Max_cycle;Signal;HPM_P1;HPM_P2
2021/11/10 00:00:17;;;;;;;7.63;5.22;;;;;;;-2.47;100.00;93711.63;2106781;28;20024;-81
2021/11/10 00:01:18;;;;;;;8.70;6.35;;;;;;;-2.55;100.00;93716.63;2090993;28;20052;-82
2021/11/10 00:02:18;;;;;;;8.25;5.93;;;;;;;-2.64;100.00;93718.50;2098405;28;20024;-84
2021/11/10 00:03:20;;;;;;;8.00;5.43;;;;;;;-2.60;100.00;93711.53;2098467;28;20036;-85
2021/11/10 00:04:22;;;;;;;8.55;6.38;;;;;;;-2.54;100.00;93706.91;2106904;28;20058;-83
2021/11/10 00:05:23;;;;;;;6.90;5.63;;;;;;;-2.41;100.00;93713.75;2098629;28;20016;-84
2021/11/10 00:06:24;;;;;;;11.25;6.18;;;;;;;-2.42;100.00;93712.19;2096005;28;20054;-83
2021/11/10 00:07:25;;;;;;;11.43;5.82;;;;;;;-2.47;100.00;93717.63;2081855;28;20056;-83
2021/11/10 00:08:26;;;;;;;6.38;5.45;;;;;;;-2.70;100.00;93716.41;2081768;28;20037;-83
2021/11/10 00:09:27;;;;;;;9.30;6.10;;;;;;;-2.60;100.00;93716.03;2090187;28;20025;-82
2021/11/10 00:10:28;;;;;;;11.27;6.47;;;;;;;-2.49;100.00;93719.03;2098683;28;20488;-82
2021/11/10 00:11:29;;;;;;;7.35;6.18;;;;;;;-2.39;100.00;93718.66;2089965;28;20067;-81
2021/11/10 00:12:30;;;;;;;8.93;5.55;;;;;;;-2.48;100.00;93715.34;2090053;28;20047;-85
2021/11/10 00:13:32;;;;;;;9.65;6.22;;;;;;;-2.66;100.00;93712.81;2089548;28;20024;-83
2021/11/10 00:14:33;;;;;;;9.50;5.90;;;;;;;-2.59;100.00;93714.94;2090244;28;20032;-83
2021/11/10 00:15:34;;;;;;;8.43;6.50;;;;;;;-2.60;100.00;93718.63;2096882;28;20031;-87
2021/11/10 00:16:35;;;;;;;11.98;5.72;;;;;;;-2.59;100.00;93717.53;2081699;28;20529;-84
2021/11/10 00:17:36;;;;;;;7.60;6.07;;;;;;;-2.73;100.00;93723.03;2081737;28;20101;-82
2021/11/10 00:18:37;;;;;;;8.45;5.93;;;;;;;-2.80;100.00;93728.00;2090278;28;20028;-83
2021/11/10 00:19:39;;;;;;;9.05;6.25;;;;;;;-2.73;100.00;93733.47;2090026;28;20393;-83
2021/11/10 00:20:41;;;;;;;11.32;6.20;;;;;;;-2.71;100.00;93746.25;2082028;28;20028;-83
2021/11/10 00:21:42;;;;;;;10.00;6.43;;;;;;;-2.70;100.00;93747.78;2089961;28;20036;-86
2021/11/10 00:22:43;;;;;;;9.23;6.07;;;;;;;-2.68;100.00;93753.47;2089856;28;20553;-85
2021/11/10 00:23:44;;;;;;;9.27;5.95;;;;;;;-2.65;100.00;93752.84;2090057;28;20017;-84
2021/11/10 00:24:45;;;;;;;8.20;5.82;;;;;;;-2.64;100.00;93751.75;2081915;28;20052;-87
2021/11/10 00:25:46;;;;;;;8.63;5.45;;;;;;;-2.67;100.00;93747.94;2090155;28;20457;-81
2021/11/10 00:26:47;;;;;;;7.95;6.40;;;;;;;-2.66;100.00;93743.47;2089955;28;20021;-83
2021/11/10 00:27:48;;;;;;;9.27;6.25;;;;;;;-2.64;100.00;93746.50;2090036;28;20017;-81
2021/11/10 00:28:49;;;;;;;10.45;6.47;;;;;;;-2.61;100.00;93754.50;2089836;28;20100;-85
2021/11/10 00:29:50;;;;;;;7.57;6.18;;;;;;;-2.63;100.00;93748.84;2081925;28;20524;-83
2021/11/10 00:30:51;;;;;;;12.68;6.65;;;;;;;-2.59;100.00;93751.56;2086512;28;20611;-84
2021/11/10 00:31:52;;;;;;;9.60;6.25;;;;;;;-2.54;100.00;93746.16;2089845;28;20697;-83
2021/11/10 00:32:53;;;;;;;12.85;7.10;;;;;;;-2.46;100.00;93753.19;2098340;28;20098;-85
2021/11/10 00:33:55;;;;;;;9.63;6.88;;;;;;;-2.45;100.00;93746.88;2098179;28;20025;-84
2021/11/10 00:34:55;;;;;;;11.35;7.25;;;;;;;-2.50;100.00;93741.84;2106394;28;20454;-82
2021/11/10 00:35:56;;;;;;;10.35;6.97;;;;;;;-2.50;100.00;93736.59;2098115;28;20024;-84
2021/11/10 00:36:57;;;;;;;9.05;6.80;;;;;;;-2.44;100.00;93737.94;2098144;28;20111;-84
2021/11/10 00:37:58;;;;;;;9.88;7.07;;;;;;;-2.40;100.00;93733.59;2106370;28;20142;-83
2021/11/10 00:38:59;;;;;;;8.13;5.75;;;;;;;-2.51;100.00;93734.28;2098319;28;20032;-84
2021/11/10 00:40:01;;;;;;;8.75;6.50;;;;;;;-2.46;100.00;93732.22;2098173;28;20039;-81
2021/11/10 00:41:03;;;;;;;10.05;6.70;;;;;;;-2.54;100.00;93731.22;2089784;28;20020;-83
2021/11/10 00:42:04;;;;;;;7.35;6.10;;;;;;;-2.58;100.00;93729.56;2098223;28;20024;-82
2021/11/10 00:43:05;;;;;;;11.38;6.43;;;;;;;-2.50;100.00;93723.50;2105760;28;20020;-84
2021/11/10 00:44:06;;;;;;;11.00;6.50;;;;;;;-2.55;100.00;93729.69;2098230;28;20028;-82
2021/11/10 00:45:08;;;;;;;10.45;6.43;;;;;;;-2.54;100.00;93731.22;2089881;28;20029;-82
2021/11/10 00:46:10;;;;;;;12.50;6.65;;;;;;;-2.45;100.00;93715.47;2098395;28;20078;-81
2021/11/10 00:47:11;;;;;;;10.18;6.70;;;;;;;-2.36;100.00;93718.03;2106481;28;20031;-82
2021/11/10 00:48:12;;;;;;;8.15;5.80;;;;;;;-2.31;100.00;93718.59;2097289;28;20457;-82
2021/11/10 00:49:13;;;;;;;8.18;5.90;;;;;;;-2.28;100.00;93714.59;2097892;28;20017;-85
2021/11/10 00:50:14;;;;;;;8.75;5.95;;;;;;;-2.31;100.00;93715.22;2089742;28;20116;-85
2021/11/10 00:51:15;;;;;;;9.98;6.40;;;;;;;-2.26;100.00;93714.25;2092857;28;20028;-83
2021/11/10 00:52:16;;;;;;;10.27;6.75;;;;;;;-2.27;100.00;93723.97;2090629;28;20469;-84
2021/11/10 00:53:17;;;;;;;9.90;7.13;;;;;;;-2.30;100.00;93712.25;2098049;28;20104;-85
2021/11/10 00:54:18;;;;;;;10.25;7.47;;;;;;;-2.20;100.00;93713.72;2106450;28;20016;-83
2021/11/10 00:55:19;;;;;;;11.85;7.85;;;;;;;-2.09;100.00;93714.88;2106383;28;20089;-83
2021/11/10 00:56:20;;;;;;;12.40;7.72;;;;;;;-2.03;100.00;93713.59;2106457;28;20020;-83
2021/11/10 00:57:21;;;;;;;12.98;7.97;;;;;;;-2.06;100.00;93716.88;2101377;28;20032;-81
2021/11/10 00:58:22;;;;;;;12.98;8.38;;;;;;;-2.04;100.00;93717.31;2086493;28;20532;-80
2021/11/10 00:59:23;;;;;;;9.85;7.75;;;;;;;-2.07;100.00;93714.56;2098140;28;20026;-85
2021/11/10 01:00:25;;;;;;;15.40;7.72;;;;;;;-2.07;100.00;93717.16;2082269;28;20021;-84
2021/11/10 01:01:26;;;;;;;10.50;8.50;;;;;;;-1.98;100.00;93717.84;2091959;28;20029;-86
2021/11/10 01:02:27;;;;;;;13.43;8.77;;;;;;;-1.83;100.00;93711.28;2081417;28;20051;-84
2021/11/10 01:03:29;;;;;;;11.68;8.27;;;;;;;-1.72;100.00;93707.16;2073508;28;20029;-84
2021/11/10 01:04:30;;;;;;;13.25;8.07;;;;;;;-1.70;100.00;93704.97;2081400;28;20573;-85
2021/11/10 01:05:33;;;;;;;15.07;8.35;;;;;;;-1.65;100.00;93701.38;2081420;28;20025;-84
2021/11/10 01:06:34;;;;;;;13.98;8.00;;;;;;;-1.63;100.00;93699.19;2097712;28;20028;-82
2021/11/10 01:07:36;;;;;;;13.85;7.75;;;;;;;-1.69;100.00;93695.25;2097791;28;20027;-83
2021/11/10 01:08:37;;;;;;;11.20;7.72;;;;;;;-1.72;100.00;93694.03;2102935;28;20052;-84
2021/11/10 01:09:43;;;;;;;14.90;8.45;;;;;;;-1.72;100.00;93695.91;2089723;28;20025;-86
2021/11/10 01:10:44;;;;;;;10.57;7.65;;;;;;;-1.74;100.00;93698.84;2082703;28;20478;-83
2021/11/10 01:11:47;;;;;;;11.82;7.68;;;;;;;-1.78;100.00;93698.72;2089645;28;20033;-82
2021/11/10 01:12:48;;;;;;;11.30;7.47;;;;;;;-1.82;100.00;93694.47;2090474;28;20051;-83
2021/11/10 01:13:49;;;;;;;12.40;8.25;;;;;;;-1.89;100.00;93694.22;2097938;28;20032;-85
2021/11/10 01:14:50;;;;;;;9.60;7.38;;;;;;;-1.95;100.00;93691.03;2114621;28;20102;-83
2021/11/10 01:15:51;;;;;;;15.57;8.38;;;;;;;-2.00;100.00;93691.25;2123977;27;20038;-84
2021/11/10 01:16:52;;;;;;;16.23;8.13;;;;;;;-1.96;100.00;93689.50;2106189;28;20088;-82
2021/11/10 01:17:53;;;;;;;12.32;8.27;;;;;;;-2.04;100.00;93688.50;2089597;28;20436;-83
2021/11/10 01:18:54;;;;;;;12.70;8.85;;;;;;;-2.04;100.00;93683.25;2089603;28;20044;-84
2021/11/10 01:19:55;;;;;;;10.07;7.70;;;;;;;-1.96;100.00;93680.88;2097787;28;20078;-83
2021/11/10 01:20:57;;;;;;;11.70;7.93;;;;;;;-2.04;100.00;93682.50;2097788;28;20024;-83
2021/11/10 01:21:58;;;;;;;10.55;6.97;;;;;;;-2.08;100.00;93689.47;2106092;28;20583;-83
2021/11/10 01:22:59;;;;;;;12.20;7.45;;;;;;;-2.09;100.00;93678.22;2097828;28;20428;-84
2021/11/10 01:24:00;;;;;;;12.38;7.45;;;;;;;-2.04;100.00;93685.88;2097982;28;20103;-83
2021/11/10 01:25:04;;;;;;;12.80;8.88;;;;;;;-1.92;100.00;93687.00;2102797;28;20122;-83
2021/11/10 01:26:05;;;;;;;9.20;6.90;;;;;;;-1.93;100.00;93688.09;2099035;28;20029;-80
2021/11/10 01:27:06;;;;;;;11.43;7.38;;;;;;;-2.00;100.00;93685.22;2106219;28;20088;-84
2021/11/10 01:28:08;;;;;;;11.10;7.68;;;;;;;-2.04;100.00;93688.50;2106401;28;20110;-81
2021/11/10 01:29:10;;;;;;;12.60;8.10;;;;;;;-2.06;100.00;93685.44;2097933;28;20043;-81
2021/11/10 01:30:12;;;;;;;10.95;8.02;;;;;;;-1.97;100.00;93684.59;2105906;28;20451;-86
2021/11/10 01:31:13;;;;;;;11.73;7.57;;;;;;;-2.06;100.00;93677.59;2089693;28;20021;-84
2021/11/10 01:32:14;;;;;;;12.07;7.35;;;;;;;-1.94;100.00;93686.56;2106123;28;20046;-82
2021/11/10 01:33:15;;;;;;;11.98;7.68;;;;;;;-1.94;100.00;93671.59;2106356;28;20078;-84
2021/11/10 01:34:16;;;;;;;16.13;8.52;;;;;;;-1.73;100.00;93663.69;2106189;28;20020;-82
2021/11/10 01:35:17;;;;;;;17.48;8.80;;;;;;;-1.76;100.00;93664.34;2097597;28;20051;-84
2021/11/10 01:36:19;;;;;;;11.95;7.68;;;;;;;-1.56;100.00;93665.38;2105962;28;20034;-85
2021/11/10 01:37:20;;;;;;;11.23;7.78;;;;;;;-1.63;100.00;93662.50;2091876;28;20120;-84
2021/11/10 01:38:21;;;;;;;12.38;7.57;;;;;;;-1.62;100.00;93662.19;2089350;28;20017;-83
2021/11/10 01:39:22;;;;;;;11.20;7.70;;;;;;;-1.52;100.00;93653.91;2098007;28;20074;-82
2021/11/10 01:40:23;;;;;;;11.88;7.75;;;;;;;-1.55;100.00;93645.94;2106069;28;20024;-83
2021/11/10 01:41:24;;;;;;;11.48;8.02;;;;;;;-1.68;100.00;93641.75;2097637;28;20033;-85
2021/11/10 01:42:28;;;;;;;10.30;7.25;;;;;;;-1.68;100.00;93647.00;2089235;28;20500;-82
2021/11/10 01:43:29;;;;;;;11.13;7.13;;;;;;;-1.71;100.00;93639.78;2105232;28;20023;-81
2021/11/10 01:44:35;;;;;;;10.50;7.53;;;;;;;-1.76;100.00;93635.50;2105982;28;20032;-81
2021/11/10 01:45:36;;;;;;;12.07;8.50;;;;;;;-1.83;100.00;93633.44;2090845;28;20440;-81
2021/11/10 01:46:37;;;;;;;10.95;7.70;;;;;;;-1.82;100.00;93634.19;2089334;28;20104;-84
2021/11/10 01:47:39;;;;;;;10.27;7.22;;;;;;;-1.85;100.00;93629.59;2089345;28;20031;-84
2021/11/10 01:48:41;;;;;;;12.80;7.57;;;;;;;-1.80;100.00;93621.53;2106186;28;20103;-86
2021/11/10 01:49:43;;;;;;;12.30;7.57;;;;;;;-1.85;100.00;93634.84;2106032;28;20028;-84
2021/11/10 01:50:44;;;;;;;11.30;7.20;;;;;;;-1.88;100.00;93619.78;2097781;28;20514;-85
2021/11/10 01:51:49;;;;;;;11.70;8.10;;;;;;;-1.96;100.00;93624.03;2097722;28;20115;-85
2021/11/10 01:52:50;;;;;;;12.98;7.90;;;;;;;-1.95;100.00;93624.78;2098118;28;20024;-85
2021/11/10 01:53:52;;;;;;;9.15;7.82;;;;;;;-1.91;100.00;93625.66;2105950;28;20020;-84
2021/11/10 01:54:54;;;;;;;11.45;7.80;;;;;;;-1.92;100.00;93616.28;2114331;28;20061;-82
2021/11/10 01:55:55;;;;;;;9.88;7.30;;;;;;;-1.93;100.00;93625.22;2114444;28;20058;-84
2021/11/10 01:56:57;;;;;;;12.70;7.20;;;;;;;-1.95;100.00;93617.69;2105949;28;20028;-82
2021/11/10 01:57:58;;;;;;;12.65;7.22;;;;;;;-1.95;100.00;93619.53;2105956;28;20019;-80
2021/11/10 01:58:59;;;;;;;9.02;7.22;;;;;;;-1.96;100.00;93621.41;2106045;28;20071;-82
2021/11/10 02:00:25;;;;;;;11.13;7.82;;;;;;;-1.97;100.00;93612.03;2114223;28;20047;-87
2021/11/10 02:01:26;;;;;;;8.93;6.55;;;;;;;-1.91;100.00;93609.94;2105856;28;20423;-83
2021/11/10 02:02:30;;;;;;;12.60;8.10;;;;;;;-1.96;100.00;93608.31;2097571;28;20024;-84
2021/11/10 02:03:31;;;;;;;10.48;7.00;;;;;;;-1.96;100.00;93603.06;2105978;28;20031;-83
2021/11/10 02:04:35;;;;;;;12.50;7.93;;;;;;;-1.97;100.00;93606.03;2105875;28;20408;-83
2021/11/10 02:05:36;;;;;;;9.10;6.75;;;;;;;-2.02;100.00;93604.34;2114622;28;20027;-84
2021/11/10 02:06:38;;;;;;;11.57;7.30;;;;;;;-2.08;100.00;93603.78;2114329;28;20033;-81
2021/11/10 02:07:39;;;;;;;11.68;7.05;;;;;;;-2.03;100.00;93603.59;2106117;28;20051;-83
2021/11/10 02:08:41;;;;;;;10.05;7.55;;;;;;;-1.95;100.00;93609.84;2105642;28;20047;-85
2021/11/10 02:09:43;;;;;;;9.45;7.15;;;;;;;-1.97;100.00;93606.03;2097655;28;20612;-84
2021/11/10 02:10:45;;;;;;;9.60;6.93;;;;;;;-2.00;100.00;93611.91;2106105;28;20020;-84
2021/11/10 02:11:46;;;;;;;8.52;6.93;;;;;;;-2.03;100.00;93610.69;2097410;28;20027;-84
2021/11/10 02:12:48;;;;;;;10.55;7.05;;;;;;;-2.01;100.00;93607.75;2096991;28;20905;-83
2021/11/10 02:13:49;;;;;;;8.50;7.00;;;;;;;-2.01;100.00;93610.38;2105823;28;20093;-86
2021/11/10 02:14:50;;;;;;;12.55;6.80;;;;;;;-2.01;100.00;93607.75;2089254;28;20025;-86
2021/11/10 02:15:51;;;;;;;10.45;7.20;;;;;;;-2.01;100.00;93610.38;2089374;28;20027;-83
2021/11/10 02:16:54;;;;;;;10.18;6.55;;;;;;;-1.99;100.00;93608.19;2105949;28;20027;-83
2021/11/10 02:17:57;;;;;;;8.35;6.60;;;;;;;-2.04;100.00;93612.53;2105779;28;20016;-82
2021/11/10 02:18:58;;;;;;;10.85;6.78;;;;;;;-2.13;100.00;93611.88;2113546;28;20027;-84
2021/11/10 02:19:59;;;;;;;9.02;6.40;;;;;;;-2.10;100.00;93619.06;2105761;28;20488;-83
2021/11/10 02:21:06;;;;;;;11.10;6.80;;;;;;;-2.04;100.00;93614.41;2105837;28;20032;-82
2021/11/10 02:22:08;;;;;;;9.18;6.90;;;;;;;-2.07;100.00;93628.13;2105696;28;20111;-86
2021/11/10 02:23:09;;;;;;;9.48;6.97;;;;;;;-2.10;100.00;93624.31;2105841;28;20519;-84
2021/11/10 02:24:09;;;;;;;12.18;6.72;;;;;;;-2.06;100.00;93627.06;2114925;28;20031;-83
2021/11/10 02:25:12;;;;;;;10.15;6.30;;;;;;;-2.08;100.00;93627.38;2097515;28;20047;-82
2021/11/10 02:26:16;;;;;;;13.45;6.75;;;;;;;-2.13;100.00;93630.19;2098055;28;20052;-81
2021/11/10 02:27:27;;;;;;;11.35;6.53;;;;;;;-2.13;100.00;93627.56;2114159;28;20097;-81
2021/11/10 02:28:28;;;;;;;9.15;6.50;;;;;;;-2.12;100.00;93633.56;2105799;28;20020;-80
2021/11/10 02:29:31;;;;;;;7.93;5.57;;;;;;;-2.10;100.00;93629.56;2105778;28;20016;-84
2021/11/10 02:30:32;;;;;;;10.07;6.15;;;;;;;-2.15;100.00;93628.97;2114097;28;20016;-84
2021/11/10 02:31:34;;;;;;;8.77;6.88;;;;;;;-2.23;100.00;93630.59;2113192;28;20015;-86
2021/11/10 02:32:36;;;;;;;8.10;5.82;;;;;;;-2.25;100.00;93640.63;2105871;28;20111;-82
2021/11/10 02:33:37;;;;;;;11.05;6.50;;;;;;;-2.13;100.00;93642.53;2105803;28;20495;-84
2021/11/10 02:34:41;;;;;;;8.40;6.35;;;;;;;-2.01;100.00;93639.94;2097407;28;20366;-83
2021/11/10 02:35:42;;;;;;;10.18;6.78;;;;;;;-1.86;100.00;93638.56;2097700;28;20031;-82
2021/11/10 02:36:44;;;;;;;9.52;6.88;;;;;;;-1.94;100.00;93640.16;2089125;28;20035;-84
2021/11/10 02:37:50;;;;;;;7.97;6.75;;;;;;;-1.86;100.00;93638.56;2097842;28;20035;-82
2021/11/10 02:38:51;;;;;;;12.05;6.68;;;;;;;-1.81;100.00;93638.34;2121967;28;20030;-83
2021/11/10 02:39:52;;;;;;;9.52;7.15;;;;;;;-1.78;100.00;93635.84;2097288;28;20021;-84
2021/11/10 02:40:56;;;;;;;9.07;6.53;;;;;;;-1.80;100.00;93637.25;2097565;28;20021;-83
2021/11/10 02:41:57;;;;;;;7.72;6.47;;;;;;;-1.64;100.00;93632.91;2098338;28;20116;-82
2021/11/10 02:42:59;;;;;;;11.00;6.45;;;;;;;-1.82;100.00;93629.72;2105464;28;20027;-84
2021/11/10 02:44:00;;;;;;;9.73;6.43;;;;;;;-1.91;100.00;93639.53;2097465;28;20029;-82
2021/11/10 02:45:02;;;;;;;8.82;6.47;;;;;;;-1.99;100.00;93631.75;2097625;28;20024;-81
2021/11/10 02:46:03;;;;;;;9.30;5.97;;;;;;;-1.93;100.00;93633.06;2107109;28;20087;-83
2021/11/10 02:47:05;;;;;;;9.98;6.80;;;;;;;-1.95;100.00;93638.66;2105278;28;20031;-81
2021/11/10 02:48:06;;;;;;;12.50;7.68;;;;;;;-1.81;100.00;93638.34;2085758;28;20421;-83
2021/11/10 02:49:07;;;;;;;11.20;6.78;;;;;;;-1.72;100.00;93640.88;2106510;28;20039;-84
2021/11/10 02:50:09;;;;;;;10.45;7.10;;;;;;;-1.88;100.00;93640.75;2114301;28;20418;-82
2021/11/10 02:51:10;;;;;;;11.05;7.72;;;;;;;-1.87;100.00;93648.28;2114424;28;20484;-86
2021/11/10 02:52:17;;;;;;;12.13;7.75;;;;;;;-1.89;100.00;93647.06;2113996;28;20024;-85
2021/11/10 02:53:18;;;;;;;11.57;6.72;;;;;;;-1.86;100.00;93641.19;2098122;28;20077;-82
2021/11/10 02:54:19;;;;;;;9.10;7.25;;;;;;;-1.82;100.00;93636.81;2097749;28;20017;-83
2021/11/10 02:55:20;;;;;;;13.63;7.90;;;;;;;-1.85;100.00;93630.38;2105643;28;20076;-81
2021/11/10 02:56:21;;;;;;;10.70;7.57;;;;;;;-1.85;100.00;93626.97;2105700;28;20053;-81
2021/11/10 02:57:25;;;;;;;11.07;7.47;;;;;;;-1.87;100.00;93631.78;2103826;28;20020;-83
2021/11/10 02:58:31;;;;;;;13.18;7.60;;;;;;;-1.85;100.00;93632.22;2087725;28;20060;-82
2021/11/10 02:59:33;;;;;;;9.77;7.22;;;;;;;-1.85;100.00;93632.22;2098823;28;20020;-83
2021/11/10 03:00:34;;;;;;;11.00;7.43;;;;;;;-1.90;100.00;93630.56;2105797;28;20028;-84
2021/11/10 03:01:35;;;;;;;9.32;7.35;;;;;;;-1.87;100.00;93626.56;2102401;28;20028;-82
2021/11/10 03:02:36;;;;;;;12.63;7.45;;;;;;;-1.92;100.00;93629.38;2105715;28;20042;-81
2021/11/10 03:03:37;;;;;;;8.88;6.90;;;;;;;-1.99;100.00;93635.13;2105674;28;20023;-82
2021/11/10 03:04:44;;;;;;;11.07;7.68;;;;;;;-1.94;100.00;93634.94;2103324;28;20118;-81
2021/11/10 03:05:47;;;;;;;12.13;7.18;;;;;;;-1.93;100.00;93636.47;2106478;28;20028;-84
2021/11/10 03:06:48;;;;;;;11.63;7.43;;;;;;;-1.94;100.00;93631.56;2097529;28;20027;-82
2021/11/10 03:07:49;;;;;;;9.50;7.05;;;;;;;-1.97;100.00;93635.59;2105495;28;20027;-81
2021/11/10 03:08:50;;;;;;;8.52;7.10;;;;;;;-1.96;100.00;93642.34;2105430;28;20024;-83
2021/11/10 03:09:51;;;;;;;10.32;7.13;;;;;;;-2.00;100.00;93641.47;2097447;28;20408;-82
2021/11/10 03:10:53;;;;;;;10.23;7.00;;;;;;;-2.01;100.00;93639.94;2105659;28;20030;-82
2021/11/10 03:11:57;;;;;;;12.57;7.40;;;;;;;-2.09;100.00;93646.78;2114805;28;20106;-81
2021/11/10 03:12:59;;;;;;;9.10;7.53;;;;;;;-2.08;100.00;93639.69;2111853;28;20576;-84
2021/11/10 03:14:00;;;;;;;9.65;7.20;;;;;;;-1.99;100.00;93637.00;2092195;28;20110;-83
2021/11/10 03:15:01;;;;;;;9.30;6.97;;;;;;;-1.96;100.00;93625.88;2097610;28;20427;-82
2021/11/10 03:16:02;;;;;;;10.13;7.95;;;;;;;-1.91;100.00;93628.28;2104204;28;20024;-80
2021/11/10 03:17:06;;;;;;;10.23;6.68;;;;;;;-1.95;100.00;93627.41;2111225;28;20020;-82
2021/11/10 03:18:07;;;;;;;10.52;7.05;;;;;;;-2.03;100.00;93627.16;2101455;28;20515;-85
2021/11/10 03:19:08;;;;;;;10.82;7.43;;;;;;;-1.95;100.00;93622.16;2090449;28;20048;-84
2021/11/10 03:20:10;;;;;;;11.13;7.22;;;;;;;-1.93;100.00;93617.34;2102706;28;20024;-81
2021/11/10 03:21:11;;;;;;;9.68;7.28;;;;;;;-1.89;100.00;93624.28;2124152;27;20562;-86
2021/11/10 03:22:14;;;;;;;12.20;7.28;;;;;;;-1.90;100.00;93616.72;2115469;28;20032;-80
2021/11/10 03:23:15;;;;;;;11.18;7.43;;;;;;;-1.85;100.00;93616.50;2099094;28;20024;-82
2021/11/10 03:24:16;;;;;;;12.02;6.75;;;;;;;-1.91;100.00;93608.09;2107141;28;20441;-82
2021/11/10 03:25:17;;;;;;;12.18;7.32;;;;;;;-1.96;100.00;93610.94;2098995;28;20031;-85
2021/11/10 03:26:20;;;;;;;14.75;6.88;;;;;;;-1.96;100.00;93597.06;2115358;28;20030;-82
2021/11/10 03:27:21;;;;;;;14.70;7.28;;;;;;;-2.00;100.00;93604.03;2098866;28;20511;-82
2021/11/10 03:28:22;;;;;;;10.65;7.53;;;;;;;-2.00;100.00;93596.94;2098781;28;20031;-84
2021/11/10 03:29:23;;;;;;;11.30;7.03;;;;;;;-2.05;100.00;93594.53;2115446;28;20023;-85
2021/11/10 03:30:24;;;;;;;10.10;6.95;;;;;;;-2.07;100.00;93596.69;2115632;27;20019;-84
2021/11/10 03:31:25;;;;;;;10.07;6.72;;;;;;;-2.07;100.00;93592.22;2115243;28;20123;-82
2021/11/10 03:32:26;;;;;;;9.63;7.10;;;;;;;-2.06;100.00;93596.41;2098614;28;20020;-81
2021/11/10 03:33:27;;;;;;;9.07;6.20;;;;;;;-2.06;100.00;93593.78;2098700;28;20040;-83
2021/11/10 03:34:28;;;;;;;9.27;6.20;;;;;;;-2.04;100.00;93590.81;2107013;28;20065;-83
2021/11/10 03:35:28;;;;;;;9.90;6.90;;;;;;;-2.07;100.00;93581.00;2098546;28;20020;-83
2021/11/10 03:36:30;;;;;;;9.70;7.10;;;;;;;-2.04;100.00;93588.22;2098768;28;20024;-84
2021/11/10 03:37:31;;;;;;;9.70;6.80;;;;;;;-2.11;100.00;93586.13;2115441;27;20028;-84
2021/11/10 03:38:32;;;;;;;8.10;6.35;;;;;;;-2.04;100.00;93581.13;2107133;28;20058;-83
2021/11/10 03:39:33;;;;;;;10.75;7.45;;;;;;;-2.04;100.00;93583.72;2090389;28;20033;-85
2021/11/10 03:40:34;;;;;;;10.25;6.97;;;;;;;-2.06;100.00;93587.78;2098656;28;20083;-85
2021/11/10 03:41:35;;;;;;;10.50;6.72;;;;;;;-2.12;100.00;93595.06;2115429;28;20559;-81
2021/11/10 03:42:36;;;;;;;8.40;6.93;;;;;;;-2.14;100.00;93594.63;2106774;28;20020;-81
2021/11/10 03:43:37;;;;;;;13.27;7.30;;;;;;;-2.09;100.00;93597.03;2106320;28;20082;-81
2021/11/10 03:44:38;;;;;;;8.98;6.47;;;;;;;-2.04;100.00;93596.81;2098625;28;20752;-82
2021/11/10 03:45:39;;;;;;;10.48;6.55;;;;;;;-2.07;100.00;93592.22;2090317;28;20548;-84
2021/11/10 03:46:42;;;;;;;8.90;6.55;;;;;;;-2.11;100.00;93593.19;2098673;28;20025;-83
2021/11/10 03:47:43;;;;;;;8.52;6.43;;;;;;;-1.98;100.00;93588.75;2115681;27;20102;-82
2021/11/10 03:48:45;;;;;;;9.90;6.82;;;;;;;-1.98;100.00;93594.75;2115269;28;20020;-83
2021/11/10 03:49:46;;;;;;;10.15;6.30;;;;;;;-1.97;100.00;93592.94;2102267;28;20018;-83
2021/11/10 03:50:47;;;;;;;10.38;7.07;;;;;;;-2.00;100.00;93594.31;2090083;28;20127;-85
2021/11/10 03:51:48;;;;;;;10.00;6.75;;;;;;;-1.95;100.00;93593.34;2098610;28;20025;-81
2021/11/10 03:52:49;;;;;;;9.35;6.07;;;;;;;-2.00;100.00;93591.72;2106811;28;20031;-82
2021/11/10 03:53:50;;;;;;;8.23;6.10;;;;;;;-1.87;100.00;93584.63;2098660;28;20380;-83
2021/11/10 03:54:51;;;;;;;12.10;5.93;;;;;;;-1.75;100.00;93581.28;2098370;28;20028;-81
2021/11/10 03:55:52;;;;;;;10.32;6.22;;;;;;;-1.75;100.00;93584.66;2098638;28;20028;-82
2021/11/10 03:56:53;;;;;;;8.32;6.18;;;;;;;-1.78;100.00;93582.69;2090201;28;20810;-81
2021/11/10 03:57:54;;;;;;;9.23;5.93;;;;;;;-1.92;100.00;93584.84;2098557;28;20047;-84
2021/11/10 03:58:55;;;;;;;7.47;5.38;;;;;;;-1.85;100.00;93577.97;2106890;28;20019;-83
2021/11/10 03:59:56;;;;;;;7.05;5.45;;;;;;;-1.88;100.00;93583.88;2090284;28;20029;-85
2021/11/10 04:00:57;;;;;;;7.22;5.75;;;;;;;-1.92;100.00;93592.72;2081982;28;20057;-83
2021/11/10 04:01:58;;;;;;;8.10;5.70;;;;;;;-1.94;100.00;93587.03;2098593;28;20048;-85
2021/11/10 04:02:59;;;;;;;10.40;5.68;;;;;;;-1.96;100.00;93589.97;2104739;28;20024;-86
2021/11/10 04:04:00;;;;;;;7.20;5.57;;;;;;;-2.00;100.00;93588.31;2098495;28;20032;-84
2021/11/10 04:05:03;;;;;;;7.43;5.38;;;;;;;-1.99;100.00;93590.63;2091708;28;20378;-83
2021/11/10 04:06:04;;;;;;;7.00;5.28;;;;;;;-1.97;100.00;93587.69;2097496;28;20115;-86
2021/11/10 04:07:05;;;;;;;10.77;6.38;;;;;;;-2.01;100.00;93595.44;2114979;28;20031;-83
2021/11/10 04:08:06;;;;;;;8.57;5.68;;;;;;;-1.96;100.00;93592.59;2114858;28;20023;-83
2021/11/10 04:09:07;;;;;;;9.90;6.05;;;;;;;-2.01;100.00;93599.91;2098253;28;20040;-88
2021/11/10 04:10:08;;;;;;;6.38;5.20;;;;;;;-1.80;100.00;93603.97;2106883;28;20037;-84
2021/11/10 04:11:09;;;;;;;7.07;5.40;;;;;;;-1.88;100.00;93606.69;2098234;28;20093;-83
2021/11/10 04:12:10;;;;;;;7.40;5.25;;;;;;;-1.85;100.00;93612.03;2106689;28;20032;-81
2021/11/10 04:13:12;;;;;;;9.10;5.35;;;;;;;-1.86;100.00;93607.88;2114557;28;20102;-81
2021/11/10 04:14:13;;;;;;;6.03;5.10;;;;;;;-1.88;100.00;93598.84;2106849;28;20024;-84
2021/11/10 04:15:14;;;;;;;9.88;5.38;;;;;;;-1.92;100.00;93603.19;2098429;28;20029;-82
2021/11/10 04:16:20;;;;;;;7.05;5.55;;;;;;;-1.98;100.00;93596.63;2106442;28;20052;-83
2021/11/10 04:17:21;;;;;;;8.82;5.72;;;;;;;-2.00;100.00;93593.56;2100088;28;20094;-82
2021/11/10 04:18:22;;;;;;;9.38;5.63;;;;;;;-1.97;100.00;93585.81;2115206;27;20084;-85
2021/11/10 04:19:23;;;;;;;7.45;5.20;;;;;;;-2.00;100.00;93586.47;2115007;28;20478;-83
2021/11/10 04:20:24;;;;;;;5.88;4.95;;;;;;;-2.04;100.00;93582.97;2115113;28;20031;-81
2021/11/10 04:21:26;;;;;;;8.93;5.60;;;;;;;-2.01;100.00;93584.94;2106869;28;20491;-85
2021/11/10 04:22:27;;;;;;;9.32;6.28;;;;;;;-2.04;100.00;93575.88;2098087;28;20115;-81
2021/11/10 04:23:30;;;;;;;6.80;5.88;;;;;;;-1.96;100.00;93579.50;2098409;28;20032;-84
2021/11/10 04:24:31;;;;;;;8.13;5.60;;;;;;;-2.06;100.00;93582.53;2106523;28;20028;-86
2021/11/10 04:25:32;;;;;;;10.15;5.57;;;;;;;-2.07;100.00;93586.22;2098346;28;20028;-82
2021/11/10 04:26:39;;;;;;;8.73;5.38;;;;;;;-2.13;100.00;93590.16;2101082;28;20071;-85
2021/11/10 04:27:40;;;;;;;7.90;5.07;;;;;;;-2.16;100.00;93594.16;2114940;28;20567;-84
2021/11/10 04:28:41;;;;;;;8.60;5.50;;;;;;;-2.18;100.00;93600.84;2115025;28;20047;-83
2021/11/10 04:29:42;;;;;;;6.97;5.25;;;;;;;-2.13;100.00;93598.75;2106479;28;20031;-85
2021/11/10 04:30:43;;;;;;;8.18;5.60;;;;;;;-2.09;100.00;93597.03;2106567;28;20614;-85
2021/11/10 04:31:44;;;;;;;9.25;6.78;;;;;;;-2.10;100.00;93594.75;2106496;28;20076;-83
2021/11/10 04:32:46;;;;;;;12.88;6.63;;;;;;;-1.97;100.00;93590.31;2106530;28;20411;-84
2021/11/10 04:33:47;;;;;;;8.25;5.55;;;;;;;-1.98;100.00;93597.38;2089969;28;20072;-84
2021/11/10 04:34:48;;;;;;;10.65;6.10;;;;;;;-1.94;100.00;93593.03;2081992;28;20025;-83
2021/11/10 04:35:50;;;;;;;8.85;5.63;;;;;;;-1.91;100.00;93584.53;2083387;28;20068;-82
2021/11/10 04:36:51;;;;;;;6.90;5.07;;;;;;;-1.89;100.00;93584.19;2094832;28;20031;-81
2021/11/10 04:37:52;;;;;;;8.93;5.03;;;;;;;-1.95;100.00;93590.72;2107436;28;20028;-83
2021/11/10 04:38:53;;;;;;;8.30;5.72;;;;;;;-1.88;100.00;93590.97;2091727;28;20032;-83
2021/11/10 04:39:54;;;;;;;7.65;5.25;;;;;;;-1.86;100.00;93588.78;2098747;28;20034;-83
2021/11/10 04:40:55;;;;;;;9.45;5.75;;;;;;;-1.89;100.00;93595.44;2112239;28;20073;-84
2021/11/10 04:41:56;;;;;;;7.65;5.60;;;;;;;-1.96;100.00;93586.59;2106552;28;20049;-83
2021/11/10 04:42:57;;;;;;;12.95;5.85;;;;;;;-1.87;100.00;93590.63;2106067;28;20480;-85
2021/11/10 04:43:58;;;;;;;5.70;5.10;;;;;;;-1.87;100.00;93589.88;2114831;28;20027;-84
2021/11/10 04:45:04;;;;;;;9.20;5.68;;;;;;;-1.86;100.00;93589.53;2106583;28;20035;-88